Time;durP1;ratioP1;P1;durP2;ratioP2;P2;SDS_P1;SDS_P2;PMS_P1;PMS_P2;Temp;Humidity;BMP_temperature;BMP_pressure;BME280_temperature;BME280_humidity;BME280_pressure;Samples;Min_cycle;Max_cycle;Signal;HPM_P1;HPM_P2
2023/01/06 00:00:21;;;;;;;37.57;7.37;;;10.20;99.90;;;;;;5076773;28;20334;-89
2023/01/06 00:02:47;;;;;;;40.20;7.13;;;10.20;99.90;;;;;;5059385;28;20627;-89
2023/01/06 00:05:13;;;;;;;42.27;7.90;;;10.30;99.90;;;;;;5076328;28;20297;-89
2023/01/06 00:07:40;;;;;;;38.80;7.20;;;10.30;99.90;;;;;;5077383;28;20141;-89
2023/01/06 00:10:06;;;;;;;35.73;7.63;;;10.30;99.90;;;;;;5059319;28;20299;-89
2023/01/06 00:12:32;;;;;;;33.63;6.93;;;10.30;99.90;;;;;;5042435;28;20303;-90
2023/01/06 00:14:58;;;;;;;29.93;7.03;;;10.30;99.90;;;;;;5059145;28;20751;-89
2023/01/06 00:17:24;;;;;;;35.20;6.53;;;10.30;99.90;;;;;;5059825;28;20044;-88
2023/01/06 00:19:50;;;;;;;32.37;5.70;;;10.40;99.90;;;;;;5060810;28;20549;-89
2023/01/06 00:22:16;;;;;;;37.00;6.70;;;10.30;99.90;;;;;;5060204;28;20295;-90
2023/01/06 00:24:42;;;;;;;30.63;5.77;;;10.40;99.90;;;;;;5076479;28;20294;-89
2023/01/06 00:27:08;;;;;;;30.53;4.60;;;10.40;99.90;;;;;;5076189;28;20049;-89
2023/01/06 00:29:33;;;;;;;26.67;5.07;;;10.40;99.90;;;;;;5058357;28;20051;-89
2023/01/06 00:32:00;;;;;;;27.40;5.53;;;10.40;99.90;;;;;;5077003;28;20135;-89
2023/01/06 00:34:26;;;;;;;27.83;5.10;;;10.40;99.90;;;;;;5058258;28;20048;-89
2023/01/06 00:36:52;;;;;;;22.77;5.10;;;10.40;99.90;;;;;;5058429;28;20322;-88
2023/01/06 00:39:18;;;;;;;24.47;5.03;;;10.40;99.90;;;;;;5057547;28;20337;-88
2023/01/06 00:44:29;;;;;;;21.43;4.80;;;10.40;99.90;;;;;;5059224;28;20056;-89
2023/01/06 00:46:55;;;;;;;20.63;4.70;;;10.40;99.90;;;;;;5058249;28;20437;-90
2023/01/06 00:49:21;;;;;;;20.03;4.50;;;10.40;99.90;;;;;;5058993;28;20373;-89
2023/01/06 00:51:47;;;;;;;19.43;4.93;;;10.40;99.90;;;;;;5058150;28;20040;-89
2023/01/06 00:54:13;;;;;;;19.73;5.03;;;10.40;99.90;;;;;;5058114;28;20056;-89
2023/01/06 00:56:43;;;;;;;27.03;5.40;;;10.40;99.90;;;;;;5058107;28;20290;-88
2023/01/06 00:59:10;;;;;;;18.93;4.33;;;10.40;99.90;;;;;;5075639;28;20278;-88
2023/01/06 01:01:37;;;;;;;19.57;4.33;;;10.40;99.90;;;;;;5057937;28;20620;-88
2023/01/06 01:04:03;;;;;;;18.77;3.70;;;10.40;99.90;;;;;;5057867;28;20275;-89
2023/01/06 01:06:29;;;;;;;17.07;4.00;;;10.30;99.90;;;;;;5057542;28;20309;-88
2023/01/06 01:08:56;;;;;;;16.07;3.67;;;10.30;99.90;;;;;;5058552;28;20298;-89
2023/01/06 01:14:08;;;;;;;14.48;3.35;;;10.30;99.90;;;;;;5075452;28;20287;-87
2023/01/06 01:16:34;;;;;;;17.07;3.77;;;10.30;99.90;;;;;;5075369;28;20044;-88
2023/01/06 01:19:00;;;;;;;20.03;4.87;;;10.30;99.90;;;;;;5075264;28;20287;-89
2023/01/06 01:21:26;;;;;;;14.43;4.17;;;10.30;99.90;;;;;;5075402;28;20052;-87
2023/01/06 01:23:51;;;;;;;13.77;3.70;;;10.30;99.90;;;;;;5075247;28;20052;-88
2023/01/06 01:26:17;;;;;;;18.87;4.80;;;10.30;99.90;;;;;;5040916;28;20086;-88
2023/01/06 01:28:43;;;;;;;14.37;4.30;;;10.30;99.90;;;;;;5057458;28;20049;-88
2023/01/06 01:31:09;;;;;;;16.60;4.27;;;10.30;99.90;;;;;;5075071;28;20048;-88
2023/01/06 01:33:34;;;;;;;18.43;4.10;;;10.20;99.90;;;;;;5057418;28;20098;-88
2023/01/06 01:36:12;;;;;;;19.17;4.60;;;10.20;99.90;;;;;;5074840;28;20052;-87
2023/01/06 01:38:37;;;;;;;13.80;4.33;;;10.20;99.90;;;;;;5040876;28;20059;-88
2023/01/06 01:41:04;;;;;;;18.33;4.90;;;10.20;99.90;;;;;;5057268;28;20279;-88
2023/01/06 01:44:20;;;;;;;17.00;4.80;;;10.20;99.90;;;;;;5057342;28;20048;-88
2023/01/06 01:46:46;;;;;;;13.13;4.70;;;10.20;99.90;;;;;;5015251;28;20333;-88
2023/01/06 01:49:19;;;;;;;14.30;4.67;;;10.20;99.90;;;;;;5057385;28;20415;-88
2023/01/06 01:51:47;;;;;;;17.10;5.40;;;10.20;99.90;;;;;;5075317;28;20092;-88
2023/01/06 01:54:17;;;;;;;15.63;5.03;;;10.20;99.90;;;;;;5056909;28;20282;-89
2023/01/06 01:56:48;;;;;;;18.73;5.83;;;10.20;99.90;;;;;;5074713;28;20271;-88
2023/01/06 01:59:18;;;;;;;16.37;5.33;;;10.20;99.90;;;;;;5057131;28;20340;-88
2023/01/06 02:01:45;;;;;;;21.50;4.57;;;10.20;99.90;;;;;;5080422;28;20312;-88
2023/01/06 02:04:11;;;;;;;12.93;4.33;;;10.20;99.90;;;;;;5056803;28;20283;-88
2023/01/06 02:06:39;;;;;;;21.20;4.83;;;10.20;99.90;;;;;;5056425;28;20307;-87
2023/01/06 02:09:31;;;;;;;12.70;4.57;;;10.20;99.90;;;;;;5074480;28;20350;-88
2023/01/06 02:11:57;;;;;;;15.87;4.20;;;10.10;99.90;;;;;;5075241;28;20608;-88
2023/01/06 02:14:25;;;;;;;19.37;4.53;;;10.20;99.90;;;;;;5074334;28;20303;-88
2023/01/06 02:17:22;;;;;;;16.30;4.10;;;10.10;99.90;;;;;;5040012;28;20283;-88
2023/01/06 02:19:56;;;;;;;19.27;4.83;;;10.20;99.90;;;;;;5057346;28;20313;-88
2023/01/06 02:23:02;;;;;;;14.65;4.07;;;10.10;99.90;;;;;;5074668;28;20283;-87
2023/01/06 02:26:07;;;;;;;15.18;4.00;;;10.10;99.90;;;;;;5040259;28;20060;-87
2023/01/06 02:28:48;;;;;;;17.17;3.90;;;10.10;99.90;;;;;;5074617;28;20055;-87
2023/01/06 02:31:50;;;;;;;14.03;3.60;;;10.10;99.90;;;;;;5074266;28;20291;-87
2023/01/06 02:34:40;;;;;;;13.23;3.00;;;10.10;99.90;;;;;;4956779;28;20317;-88
2023/01/06 02:37:18;;;;;;;17.30;3.93;;;10.10;99.90;;;;;;5052455;28;20349;-87
2023/01/06 02:40:04;;;;;;;15.73;3.13;;;10.10;99.90;;;;;;5073879;28;20320;-88
2023/01/06 02:42:41;;;;;;;13.93;2.60;;;10.10;99.90;;;;;;5055873;28;20283;-88
2023/01/06 02:45:18;;;;;;;11.20;2.70;;;10.10;99.90;;;;;;5056478;28;20325;-87
2023/01/06 02:48:28;;;;;;;13.80;3.00;;;10.10;99.90;;;;;;5056210;28;20325;-87
2023/01/06 02:51:12;;;;;;;8.23;2.63;;;10.10;99.90;;;;;;4957103;28;20417;-87
2023/01/06 02:54:13;;;;;;;9.57;2.60;;;10.10;99.90;;;;;;4973210;28;20359;-87
2023/01/06 02:56:46;;;;;;;8.90;2.90;;;10.10;99.90;;;;;;5038217;28;20375;-87
2023/01/06 02:59:39;;;;;;;11.33;3.20;;;10.10;99.90;;;;;;5055949;28;20291;-88
2023/01/06 03:02:08;;;;;;;9.03;3.33;;;10.10;99.90;;;;;;5044414;28;20350;-87
2023/01/06 03:04:39;;;;;;;14.97;4.17;;;10.10;99.90;;;;;;5073443;28;20356;-88
2023/01/06 03:07:06;;;;;;;15.23;5.33;;;10.10;99.90;;;;;;5039211;28;20299;-87
2023/01/06 03:09:35;;;;;;;13.13;5.20;;;10.10;99.90;;;;;;5055625;28;20341;-88
2023/01/06 03:12:31;;;;;;;10.97;4.53;;;10.10;99.90;;;;;;5073355;28;20330;-88
2023/01/06 03:14:57;;;;;;;11.15;4.95;;;10.10;99.90;;;;;;5053769;28;20289;-88
2023/01/06 03:17:24;;;;;;;11.00;5.10;;;10.10;99.90;;;;;;5055800;28;20135;-90
2023/01/06 03:19:50;;;;;;;7.97;4.70;;;10.10;99.90;;;;;;5073659;28;20052;-89
2023/01/06 03:22:16;;;;;;;11.70;5.10;;;10.10;99.90;;;;;;5073485;28;20275;-89
2023/01/06 03:24:44;;;;;;;9.53;4.87;;;10.10;99.90;;;;;;5055274;28;20366;-88
2023/01/06 03:27:09;;;;;;;11.37;5.50;;;10.10;99.90;;;;;;5056286;28;20580;-88
2023/01/06 03:29:36;;;;;;;12.77;6.43;;;10.10;99.90;;;;;;5055071;28;20782;-88
2023/01/06 03:32:08;;;;;;;14.87;6.73;;;10.20;99.90;;;;;;5055471;28;20044;-88
2023/01/06 03:34:42;;;;;;;13.63;6.70;;;10.20;99.90;;;;;;5056208;28;20291;-88
2023/01/06 03:37:20;;;;;;;13.45;7.55;;;10.20;99.90;;;;;;5056400;28;20301;-88
2023/01/06 03:39:56;;;;;;;13.70;7.23;;;10.10;99.90;;;;;;5073259;28;20088;-92
2023/01/06 03:45:49;;;;;;;10.60;8.13;;;10.20;99.90;;;;;;5055530;28;20809;-88
2023/01/06 03:48:27;;;;;;;10.53;7.80;;;10.20;99.90;;;;;;5072798;28;20770;-89
2023/01/06 03:51:21;;;;;;;12.60;8.23;;;10.20;99.90;;;;;;5039139;28;20294;-88
2023/01/06 03:54:11;;;;;;;14.17;8.43;;;10.20;99.90;;;;;;5055693;28;20386;-88
2023/01/06 03:57:03;;;;;;;10.53;7.97;;;10.20;99.90;;;;;;5073817;28;20642;-92
2023/01/06 03:59:32;;;;;;;11.10;7.40;;;10.20;99.90;;;;;;5056160;28;20762;-88
2023/01/06 04:01:59;;;;;;;12.47;7.40;;;10.20;99.90;;;;;;5056051;28;20275;-88
2023/01/06 04:04:25;;;;;;;13.67;7.37;;;10.20;99.90;;;;;;5072911;28;20283;-88
2023/01/06 04:06:50;;;;;;;10.47;6.77;;;10.30;99.90;;;;;;5055003;28;20305;-89
2023/01/06 04:09:16;;;;;;;13.23;6.23;;;10.30;99.90;;;;;;5055228;28;20044;-89
2023/01/06 04:14:26;;;;;;;8.93;5.67;;;10.20;99.90;;;;;;5077306;28;20052;-88
2023/01/06 04:16:52;;;;;;;9.97;5.13;;;10.30;99.90;;;;;;5060186;28;20340;-88
2023/01/06 04:19:18;;;;;;;8.10;4.67;;;10.20;99.90;;;;;;5059060;28;20476;-88
2023/01/06 04:21:43;;;;;;;9.03;3.50;;;10.30;99.90;;;;;;5058895;28;20052;-89
2023/01/06 04:24:09;;;;;;;8.67;3.60;;;10.20;99.90;;;;;;5076566;28;20044;-89
2023/01/06 04:26:35;;;;;;;8.40;3.47;;;10.30;99.90;;;;;;5076364;28;20048;-90
2023/01/06 04:29:01;;;;;;;6.10;3.07;;;10.30;99.90;;;;;;5058513;28;20055;-90
2023/01/06 04:31:27;;;;;;;9.23;3.30;;;10.30;99.90;;;;;;5059393;28;20052;-90
2023/01/06 04:33:53;;;;;;;6.17;2.73;;;10.30;99.90;;;;;;5058402;28;20779;-90
2023/01/06 04:36:21;;;;;;;5.13;2.83;;;10.30;99.90;;;;;;5058861;28;20290;-89
2023/01/06 04:38:47;;;;;;;6.43;2.60;;;10.30;99.90;;;;;;5058527;28;20048;-90
2023/01/06 04:41:13;;;;;;;7.37;2.83;;;10.30;99.90;;;;;;5058196;28;20294;-89
2023/01/06 04:43:38;;;;;;;6.37;3.27;;;10.30;99.90;;;;;;5042350;28;20059;-89
2023/01/06 04:46:04;;;;;;;7.00;3.20;;;10.30;99.90;;;;;;5076189;28;20044;-89
2023/01/06 04:48:30;;;;;;;7.87;3.50;;;10.30;99.90;;;;;;5076320;28;20066;-90
2023/01/06 04:51:04;;;;;;;7.63;3.40;;;10.30;99.90;;;;;;5075981;28;20048;-90
2023/01/06 04:53:34;;;;;;;9.75;3.42;;;10.30;99.90;;;;;;5058192;28;20048;-89
2023/01/06 04:56:05;;;;;;;8.27;3.60;;;10.30;99.90;;;;;;5058055;28;20048;-88
2023/01/06 04:58:31;;;;;;;8.80;3.10;;;10.30;99.90;;;;;;5058510;28;20302;-88
2023/01/06 05:01:15;;;;;;;6.07;3.07;;;10.30;99.90;;;;;;5058324;28;20344;-88
2023/01/06 05:03:41;;;;;;;11.47;2.93;;;10.30;99.90;;;;;;5041636;28;20359;-89
2023/01/06 05:06:09;;;;;;;6.40;2.73;;;10.30;99.90;;;;;;5054628;28;20756;-88
2023/01/06 05:08:36;;;;;;;6.80;2.57;;;10.30;99.90;;;;;;5055856;28;20477;-89
2023/01/06 05:11:05;;;;;;;6.13;2.80;;;10.30;99.90;;;;;;5055504;28;20635;-89
2023/01/06 05:13:31;;;;;;;6.60;3.20;;;10.30;99.90;;;;;;5055625;28;20778;-89
2023/01/06 05:15:57;;;;;;;7.10;2.80;;;10.30;99.90;;;;;;5038286;28;20294;-89
2023/01/06 05:18:23;;;;;;;4.50;2.53;;;10.30;99.90;;;;;;5054416;28;20823;-89
2023/01/06 05:20:50;;;;;;;8.47;3.20;;;10.30;99.90;;;;;;5054462;28;20110;-88
2023/01/06 05:23:17;;;;;;;9.13;3.20;;;10.30;99.90;;;;;;5054126;28;20053;-89
2023/01/06 05:25:42;;;;;;;8.27;3.60;;;10.30;99.90;;;;;;5055100;28;20279;-89
2023/01/06 05:28:08;;;;;;;6.50;2.57;;;10.30;99.90;;;;;;5053899;28;20715;-88
2023/01/06 05:30:33;;;;;;;8.30;3.13;;;10.30;99.90;;;;;;5055244;28;20048;-88
2023/01/06 05:32:59;;;;;;;9.03;3.07;;;10.30;99.90;;;;;;5054756;28;20048;-89
2023/01/06 05:35:25;;;;;;;6.57;3.03;;;10.20;99.90;;;;;;5055892;28;20080;-90
2023/01/06 05:37:53;;;;;;;6.30;3.03;;;10.30;99.90;;;;;;5038043;28;20055;-93
2023/01/06 05:40:19;;;;;;;11.93;3.70;;;10.20;99.90;;;;;;5037708;28;20094;-91
2023/01/06 05:42:45;;;;;;;7.90;3.30;;;10.20;99.90;;;;;;5054228;28;20296;-91
2023/01/06 05:45:10;;;;;;;8.97;3.93;;;10.10;99.90;;;;;;5053807;28;20051;-91
2023/01/06 05:47:36;;;;;;;12.40;3.80;;;10.10;99.90;;;;;;5055053;28;20041;-92
2023/01/06 05:50:03;;;;;;;9.20;3.87;;;10.10;99.90;;;;;;5055609;28;20143;-91
2023/01/06 05:52:28;;;;;;;12.67;4.07;;;10.10;99.90;;;;;;5053951;28;20139;-91
2023/01/06 05:54:54;;;;;;;7.03;3.80;;;10.10;99.90;;;;;;5053404;28;20318;-90
2023/01/06 05:57:20;;;;;;;9.77;4.37;;;10.10;99.90;;;;;;5053637;28;20048;-90
2023/01/06 05:59:46;;;;;;;8.57;3.53;;;10.10;99.90;;;;;;5053974;28;20536;-91
2023/01/06 06:02:12;;;;;;;7.50;4.53;;;10.10;99.90;;;;;;5036555;28;20508;-90
2023/01/06 06:04:37;;;;;;;9.80;4.27;;;10.10;99.90;;;;;;5055094;28;20288;-90
2023/01/06 06:07:03;;;;;;;14.27;5.33;;;10.00;99.90;;;;;;5053214;28;20053;-90
2023/01/06 06:09:29;;;;;;;9.00;5.20;;;10.10;99.90;;;;;;5036556;28;20533;-90
2023/01/06 06:11:54;;;;;;;12.47;5.70;;;10.00;99.90;;;;;;5053545;28;20045;-88
2023/01/06 06:14:20;;;;;;;12.07;4.97;;;10.10;99.90;;;;;;5054567;28;20136;-89
2023/01/06 06:16:46;;;;;;;9.03;4.90;;;10.00;99.90;;;;;;5053406;28;20047;-87
2023/01/06 06:19:12;;;;;;;8.50;5.13;;;10.00;99.90;;;;;;5055000;28;20080;-87
2023/01/06 06:21:38;;;;;;;9.13;5.60;;;10.00;99.90;;;;;;5054503;28;20088;-86
2023/01/06 06:24:04;;;;;;;9.17;5.67;;;10.10;99.90;;;;;;5057178;28;20052;-86
2023/01/06 06:26:30;;;;;;;9.23;5.30;;;10.00;99.90;;;;;;5052886;28;20040;-85
2023/01/06 06:28:56;;;;;;;9.20;5.47;;;10.00;99.90;;;;;;5052861;28;20752;-86
2023/01/06 06:31:27;;;;;;;9.93;5.43;;;10.00;99.90;;;;;;5052980;28;20076;-86
2023/01/06 06:33:56;;;;;;;7.70;4.97;;;10.00;99.90;;;;;;5054378;28;20124;-86
2023/01/06 06:36:22;;;;;;;9.00;5.87;;;10.00;99.90;;;;;;5052136;28;20695;-88
2023/01/06 06:38:49;;;;;;;9.03;6.00;;;10.10;99.90;;;;;;5052876;28;20314;-87
2023/01/06 06:41:16;;;;;;;9.53;5.73;;;10.00;99.90;;;;;;5052874;28;20383;-87
2023/01/06 06:43:42;;;;;;;11.53;5.83;;;10.00;99.90;;;;;;5053822;28;20280;-88
2023/01/06 06:46:08;;;;;;;9.47;5.60;;;10.00;99.90;;;;;;5053487;28;20649;-87
2023/01/06 06:48:34;;;;;;;8.17;5.47;;;10.00;99.90;;;;;;5053718;28;20279;-88
2023/01/06 06:51:11;;;;;;;10.23;5.30;;;10.00;99.90;;;;;;5053807;28;20283;-87
2023/01/06 06:53:38;;;;;;;10.63;5.97;;;10.00;99.90;;;;;;5054213;28;20352;-89
2023/01/06 06:56:05;;;;;;;10.13;5.20;;;10.00;99.90;;;;;;5053294;28;20280;-90
2023/01/06 06:58:32;;;;;;;7.60;4.87;;;10.00;99.90;;;;;;5054249;28;20275;-89
2023/01/06 07:00:57;;;;;;;6.53;4.77;;;10.00;99.90;;;;;;5052684;28;20298;-90
2023/01/06 07:03:24;;;;;;;7.43;5.03;;;10.00;99.90;;;;;;5052917;28;20310;-90
2023/01/06 07:05:51;;;;;;;7.30;4.73;;;10.00;99.90;;;;;;5055130;28;20056;-89
2023/01/06 07:08:17;;;;;;;6.43;4.20;;;10.00;99.90;;;;;;5039275;28;20338;-88
2023/01/06 07:10:43;;;;;;;8.43;4.30;;;10.00;99.90;;;;;;5056096;28;20647;-91
2023/01/06 07:13:09;;;;;;;7.07;4.37;;;10.00;99.90;;;;;;5056653;28;20286;-89
2023/01/06 07:15:35;;;;;;;6.77;4.70;;;10.00;99.90;;;;;;5074271;28;20362;-89
2023/01/06 07:18:05;;;;;;;9.57;4.40;;;10.00;99.90;;;;;;5056486;28;20291;-90
2023/01/06 07:20:32;;;;;;;7.10;4.43;;;10.00;99.90;;;;;;5073971;28;20124;-89
2023/01/06 07:22:58;;;;;;;6.33;3.43;;;10.00;99.90;;;;;;5055700;28;20291;-91
2023/01/06 07:25:24;;;;;;;13.23;3.87;;;10.00;99.90;;;;;;5073842;28;20396;-90
2023/01/06 07:27:59;;;;;;;10.67;2.37;;;10.00;99.90;;;;;;5055707;28;20040;-90
2023/01/06 07:30:26;;;;;;;11.65;2.20;;;9.90;99.90;;;;;;5073854;28;20781;-90
2023/01/06 07:32:52;;;;;;;10.37;1.77;;;9.90;99.90;;;;;;5073331;28;20488;-90
2023/01/06 07:35:18;;;;;;;9.67;2.50;;;9.80;99.90;;;;;;5055643;28;20294;-91
2023/01/06 07:37:44;;;;;;;15.00;2.67;;;9.70;99.90;;;;;;5055391;28;20087;-90
2023/01/06 07:40:11;;;;;;;12.37;2.50;;;9.60;99.90;;;;;;5073365;28;20279;-93
2023/01/06 07:42:37;;;;;;;11.50;2.00;;;9.50;99.90;;;;;;5055970;28;20282;-92
2023/01/06 07:45:03;;;;;;;13.63;2.50;;;9.50;99.90;;;;;;5056556;28;20297;-94
2023/01/06 07:47:29;;;;;;;12.63;1.70;;;9.40;99.90;;;;;;5056746;28;20045;-91
2023/01/06 07:49:55;;;;;;;13.00;2.30;;;9.30;99.90;;;;;;5076833;28;20281;-91
2023/01/06 07:52:21;;;;;;;15.63;2.10;;;9.30;99.90;;;;;;5077145;28;20476;-90
2023/01/06 07:54:46;;;;;;;14.73;2.70;;;9.20;99.90;;;;;;5077593;28;20461;-89
2023/01/06 07:57:12;;;;;;;13.87;2.17;;;9.10;99.90;;;;;;5077051;28;20041;-87
2023/01/06 07:59:38;;;;;;;12.93;2.40;;;9.10;99.90;;;;;;5042737;28;20369;-89
2023/01/06 08:02:04;;;;;;;12.00;1.90;;;9.00;99.90;;;;;;5076786;28;20084;-88
2023/01/06 08:04:29;;;;;;;13.10;2.10;;;9.00;99.90;;;;;;5059832;28;20044;-87
2023/01/06 08:06:55;;;;;;;10.50;1.73;;;8.90;99.90;;;;;;5055186;28;20060;-87
2023/01/06 08:09:21;;;;;;;15.60;2.23;;;8.90;99.90;;;;;;5056748;28;20057;-86
2023/01/06 08:11:46;;;;;;;10.33;1.70;;;8.80;99.90;;;;;;5057523;28;20055;-86
2023/01/06 08:14:12;;;;;;;14.23;2.10;;;8.80;99.90;;;;;;5055284;28;20041;-86
2023/01/06 08:16:39;;;;;;;12.97;1.97;;;8.70;99.90;;;;;;5056259;28;20060;-87
2023/01/06 08:19:05;;;;;;;15.27;1.83;;;8.70;99.90;;;;;;5055325;28;20485;-83
2023/01/06 08:21:30;;;;;;;12.37;2.30;;;8.70;99.90;;;;;;5056468;28;20632;-83
2023/01/06 08:23:56;;;;;;;13.83;1.90;;;8.70;99.90;;;;;;5056350;28;20290;-82
2023/01/06 08:26:22;;;;;;;14.67;2.10;;;8.60;99.90;;;;;;5056829;28;20056;-82
2023/01/06 08:28:48;;;;;;;16.57;2.13;;;8.60;99.90;;;;;;5055009;28;20132;-83
2023/01/06 08:31:16;;;;;;;11.60;2.20;;;8.60;99.90;;;;;;5056261;28;20080;-83
2023/01/06 08:33:43;;;;;;;13.77;2.17;;;8.60;99.90;;;;;;5056709;28;20699;-83
2023/01/06 08:36:13;;;;;;;15.83;2.13;;;8.60;99.90;;;;;;5056163;28;20283;-82
2023/01/06 08:38:39;;;;;;;17.40;2.20;;;8.50;99.90;;;;;;5054634;28;20785;-82
2023/01/06 08:41:06;;;;;;;18.63;2.30;;;8.50;99.90;;;;;;5056391;28;20616;-83
2023/01/06 08:43:32;;;;;;;18.00;2.57;;;8.50;99.90;;;;;;5055936;28;20279;-83
2023/01/06 08:46:02;;;;;;;15.07;2.13;;;8.40;99.90;;;;;;5056003;28;20286;-83
2023/01/06 08:48:29;;;;;;;14.60;2.10;;;8.40;99.90;;;;;;5056483;28;20106;-83
2023/01/06 08:50:56;;;;;;;15.83;2.20;;;8.40;99.90;;;;;;5055033;28;20310;-83
2023/01/06 08:53:22;;;;;;;14.17;2.60;;;8.40;99.90;;;;;;5055856;28;20283;-83
2023/01/06 08:55:48;;;;;;;16.10;2.57;;;8.40;99.90;;;;;;5054344;28;20366;-82
2023/01/06 08:58:14;;;;;;;14.23;2.27;;;8.40;99.90;;;;;;5056052;28;20099;-83
2023/01/06 09:00:41;;;;;;;15.40;2.33;;;8.40;99.90;;;;;;5055538;28;20102;-82
2023/01/06 09:03:08;;;;;;;12.37;1.93;;;8.40;99.90;;;;;;5055678;28;20056;-82
2023/01/06 09:05:33;;;;;;;13.23;2.20;;;8.40;99.90;;;;;;5055551;28;20776;-83
2023/01/06 09:07:59;;;;;;;13.23;2.40;;;8.30;99.90;;;;;;5037232;28;20335;-82
2023/01/06 09:10:25;;;;;;;16.70;2.27;;;8.40;99.90;;;;;;5056120;28;20455;-84
2023/01/06 09:12:51;;;;;;;19.60;2.97;;;8.40;99.90;;;;;;5054566;28;20083;-83
2023/01/06 09:15:17;;;;;;;21.47;2.60;;;8.40;99.90;;;;;;5055476;28;20053;-82
2023/01/06 09:17:43;;;;;;;21.07;2.80;;;8.40;99.90;;;;;;5054255;28;20045;-82
2023/01/06 09:20:09;;;;;;;19.50;3.47;;;8.40;99.90;;;;;;5056002;28;20136;-88
2023/01/06 09:22:35;;;;;;;21.07;3.07;;;8.40;99.90;;;;;;5054398;28;20049;-88
2023/01/06 09:25:01;;;;;;;24.47;3.40;;;8.40;99.90;;;;;;5055258;28;20279;-92
2023/01/06 09:27:26;;;;;;;24.97;2.43;;;8.40;99.90;;;;;;5054562;28;20461;-87
2023/01/06 09:29:52;;;;;;;23.20;3.70;;;8.50;99.90;;;;;;5037729;28;20048;-93
2023/01/06 09:32:18;;;;;;;23.03;2.97;;;8.50;99.90;;;;;;5054497;28;20099;-91
2023/01/06 09:34:43;;;;;;;14.80;2.10;;;8.60;99.90;;;;;;5021926;28;20052;-91
2023/01/06 09:37:09;;;;;;;17.80;3.30;;;8.60;99.90;;;;;;5055034;28;20106;-84
2023/01/06 09:39:38;;;;;;;18.30;2.23;;;8.70;99.90;;;;;;5054091;28;20177;-89
2023/01/06 09:42:28;;;;;;;15.20;2.53;;;8.70;99.90;;;;;;5021659;28;20057;-89
2023/01/06 09:44:59;;;;;;;16.30;2.93;;;8.80;99.90;;;;;;5054038;28;20288;-93
2023/01/06 09:47:31;;;;;;;15.63;2.07;;;8.80;99.90;;;;;;5054989;28;20308;-95
2023/01/06 09:50:19;;;;;;;18.50;2.90;;;8.90;99.90;;;;;;5055077;28;20290;-90
2023/01/06 09:52:53;;;;;;;14.60;2.83;;;8.90;99.90;;;;;;5053710;28;20291;-87
2023/01/06 09:55:34;;;;;;;15.90;2.63;;;8.90;99.90;;;;;;5054823;28;20624;-90
2023/01/06 09:58:20;;;;;;;12.93;2.07;;;9.00;99.90;;;;;;5054251;28;20287;-90
2023/01/06 10:00:50;;;;;;;18.50;2.27;;;9.00;99.90;;;;;;5055422;28;20326;-92
2023/01/06 10:03:24;;;;;;;18.73;2.37;;;9.00;99.90;;;;;;5036807;28;20370;-93
2023/01/06 10:06:21;;;;;;;10.52;1.52;;;9.00;99.90;;;;;;5054713;28;20291;-87
2023/01/06 10:08:55;;;;;;;11.20;2.20;;;9.00;99.90;;;;;;5053745;28;20057;-81
2023/01/06 10:12:00;;;;;;;12.17;2.30;;;9.10;99.90;;;;;;5053433;28;20287;-86
2023/01/06 10:14:32;;;;;;;14.95;2.30;;;9.10;99.90;;;;;;5053659;28;20291;-86
2023/01/06 10:17:01;;;;;;;13.27;2.90;;;9.10;99.90;;;;;;5053182;28;20106;-80
2023/01/06 10:20:00;;;;;;;16.83;3.00;;;9.10;99.90;;;;;;5054152;28;20287;-91
2023/01/06 10:23:02;;;;;;;11.37;1.67;;;9.10;99.90;;;;;;5036667;28;20295;-81
2023/01/06 10:25:52;;;;;;;17.20;2.47;;;9.20;99.90;;;;;;5053828;28;20292;-84
2023/01/06 10:28:56;;;;;;;12.80;1.97;;;9.20;99.90;;;;;;5054059;28;20376;-82
2023/01/06 10:31:25;;;;;;;17.60;2.93;;;9.20;99.90;;;;;;4992582;28;20689;-84
2023/01/06 10:33:56;;;;;;;11.60;1.67;;;9.10;99.90;;;;;;5044093;28;20337;-84
2023/01/06 10:36:33;;;;;;;15.20;2.87;;;9.10;99.90;;;;;;5053797;28;20651;-83
2023/01/06 10:39:02;;;;;;;14.63;2.77;;;9.10;99.90;;;;;;5053996;28;20279;-83
2023/01/06 10:41:52;;;;;;;15.70;2.40;;;9.10;99.90;;;;;;5052946;28;20298;-86
2023/01/06 10:44:18;;;;;;;17.53;2.17;;;9.20;99.90;;;;;;5055470;28;20283;-83
2023/01/06 10:46:46;;;;;;;11.93;3.13;;;9.10;99.90;;;;;;5053627;28;20345;-80
2023/01/06 10:49:17;;;;;;;19.27;3.37;;;9.10;99.90;;;;;;5053307;28;20298;-82
2023/01/06 10:51:48;;;;;;;14.27;2.13;;;9.10;99.90;;;;;;5052723;28;20336;-81
2023/01/06 10:54:22;;;;;;;11.27;2.67;;;9.10;99.90;;;;;;5054007;28;20365;-83
2023/01/06 10:56:53;;;;;;;14.45;2.55;;;9.10;99.90;;;;;;5052793;28;20275;-79
2023/01/06 10:59:19;;;;;;;16.80;2.17;;;9.10;99.90;;;;;;5052764;28;20473;-86
2023/01/06 11:01:58;;;;;;;15.80;3.40;;;9.10;99.90;;;;;;5052798;28;20291;-90
2023/01/06 11:04:26;;;;;;;11.33;2.23;;;9.00;99.90;;;;;;5052709;28;20154;-89
2023/01/06 11:07:01;;;;;;;10.40;1.93;;;9.10;99.90;;;;;;5051736;28;20365;-87
2023/01/06 11:09:40;;;;;;;16.02;2.42;;;9.10;99.90;;;;;;5052599;28;20272;-87
2023/01/06 11:12:12;;;;;;;9.50;1.87;;;9.10;99.90;;;;;;5053495;28;20056;-89
2023/01/06 11:14:39;;;;;;;12.90;2.03;;;9.10;99.90;;;;;;5052046;28;20298;-87
2023/01/06 11:17:15;;;;;;;13.53;2.33;;;9.10;99.90;;;;;;5036174;28;20592;-92
2023/01/06 11:19:45;;;;;;;20.13;2.43;;;9.10;99.90;;;;;;5052985;28;20284;-88
2023/01/06 11:22:37;;;;;;;14.23;2.87;;;9.10;99.90;;;;;;5053335;28;20608;-91
2023/01/06 11:25:21;;;;;;;15.63;2.57;;;9.10;99.90;;;;;;5057081;28;20759;-93
2023/01/06 11:28:07;;;;;;;10.70;2.22;;;9.10;99.90;;;;;;5057746;28;20750;-93
2023/01/06 11:30:39;;;;;;;13.90;2.37;;;9.10;99.90;;;;;;5026151;28;20056;-93
2023/01/06 11:33:15;;;;;;;12.27;2.00;;;9.20;99.90;;;;;;5057753;28;20291;-93
2023/01/06 11:35:41;;;;;;;11.10;2.30;;;9.20;99.90;;;;;;5058092;28;20753;-94
2023/01/06 11:38:15;;;;;;;12.20;2.03;;;9.20;99.90;;;;;;5023887;28;20283;-94
2023/01/06 11:40:44;;;;;;;11.90;2.93;;;9.30;99.90;;;;;;5058128;28;20275;-92
2023/01/06 11:43:37;;;;;;;16.50;2.43;;;9.30;99.90;;;;;;5056044;28;20284;-90
2023/01/06 11:46:09;;;;;;;16.50;2.93;;;9.40;99.90;;;;;;5054907;28;20330;-86
2023/01/06 11:48:48;;;;;;;14.50;2.00;;;9.40;99.90;;;;;;5057026;28;20299;-88
2023/01/06 11:51:14;;;;;;;14.90;2.30;;;9.40;99.90;;;;;;5057983;28;20330;-86
2023/01/06 11:53:55;;;;;;;11.73;2.17;;;9.40;99.90;;;;;;5055907;28;20298;-85
2023/01/06 11:56:22;;;;;;;14.10;3.00;;;9.40;99.90;;;;;;5040269;28;20287;-88
2023/01/06 11:58:50;;;;;;;13.77;2.33;;;9.30;99.90;;;;;;5056094;28;20775;-87
2023/01/06 12:01:22;;;;;;;12.07;2.80;;;9.30;99.90;;;;;;5055974;28;20829;-87
2023/01/06 12:03:53;;;;;;;12.70;2.20;;;9.30;99.90;;;;;;5055655;28;20291;-84
2023/01/06 12:06:29;;;;;;;15.43;3.20;;;9.30;99.90;;;;;;5056305;28;20609;-87
2023/01/06 12:09:01;;;;;;;16.03;3.10;;;9.30;99.90;;;;;;5055784;28;20379;-85
2023/01/06 12:11:49;;;;;;;15.43;2.40;;;9.30;99.90;;;;;;5057620;28;20315;-88
2023/01/06 12:14:21;;;;;;;14.30;2.10;;;9.30;99.90;;;;;;5055695;28;20284;-85
2023/01/06 12:16:55;;;;;;;14.20;2.20;;;9.20;99.90;;;;;;5039159;28;20385;-85
2023/01/06 12:19:30;;;;;;;17.42;2.38;;;9.30;99.90;;;;;;5055767;28;20632;-83
2023/01/06 12:21:57;;;;;;;13.83;2.13;;;9.20;99.90;;;;;;5056604;28;20045;-87
2023/01/06 12:24:25;;;;;;;17.93;3.30;;;9.20;99.90;;;;;;5055501;28;20287;-84
2023/01/06 12:26:52;;;;;;;12.57;2.30;;;9.20;99.90;;;;;;5039516;28;20311;-86
2023/01/06 12:29:20;;;;;;;19.83;2.83;;;9.20;99.90;;;;;;5055419;28;20775;-86
2023/01/06 12:32:20;;;;;;;14.47;2.37;;;9.30;99.90;;;;;;5055330;28;20287;-86
2023/01/06 12:34:49;;;;;;;12.77;2.63;;;9.20;99.90;;;;;;5055099;28;20290;-89
2023/01/06 12:37:26;;;;;;;22.23;2.53;;;9.20;99.90;;;;;;5055968;28;20354;-93
2023/01/06 12:39:59;;;;;;;15.00;2.77;;;9.20;99.90;;;;;;5056164;28;20346;-88
2023/01/06 12:42:47;;;;;;;15.73;2.77;;;9.20;99.90;;;;;;5038957;28;20299;-91
2023/01/06 12:45:41;;;;;;;14.97;2.33;;;9.20;99.90;;;;;;5056065;28;20681;-89
2023/01/06 12:48:37;;;;;;;23.10;2.90;;;9.20;99.90;;;;;;5056106;28;20335;-86
2023/01/06 12:51:27;;;;;;;15.40;2.97;;;9.30;99.90;;;;;;5055414;28;20290;-91
2023/01/06 12:54:10;;;;;;;15.53;2.73;;;9.20;99.90;;;;;;5056098;28;20056;-91
2023/01/06 12:56:59;;;;;;;18.07;2.80;;;9.20;99.90;;;;;;5067669;28;20272;-91
2023/01/06 12:59:46;;;;;;;14.93;2.37;;;9.20;99.90;;;;;;5065210;28;20375;-87
2023/01/06 13:02:30;;;;;;;13.23;2.40;;;9.20;99.90;;;;;;5055756;28;20338;-91
2023/01/06 13:05:22;;;;;;;21.63;3.03;;;9.20;99.90;;;;;;5055019;28;20291;-92
2023/01/06 13:07:57;;;;;;;18.20;1.80;;;9.10;99.90;;;;;;5072113;28;20725;-80
2023/01/06 13:10:47;;;;;;;16.67;3.03;;;9.10;99.90;;;;;;5076330;28;20325;-83
2023/01/06 13:13:35;;;;;;;17.27;2.37;;;9.10;99.90;;;;;;5075364;28;20397;-89
2023/01/06 13:16:10;;;;;;;14.13;2.30;;;9.10;99.90;;;;;;5076333;28;20286;-92